Time;durP1;ratioP1;P1;durP2;ratioP2;P2;SDS_P1;SDS_P2;PMS_P1;PMS_P2;Temp;Humidity;BMP_temperature;BMP_pressure;BME280_temperature;BME280_humidity;BME280_pressure;Samples;Min_cycle;Max_cycle;Signal;HPM_P1;HPM_P2
2022/07/26 00:01:16;;;;;;;337.23;194.75;;;;;;;;;;5004914;28;20808;-67
2022/07/26 00:03:42;;;;;;;312.55;180.68;;;;;;;;;;5006806;28;20220;-67
2022/07/26 00:06:08;;;;;;;322.45;185.02;;;;;;;;;;5007949;28;20279;-67
2022/07/26 00:08:34;;;;;;;295.05;172.98;;;;;;;;;;5011475;28;20271;-67
2022/07/26 00:11:00;;;;;;;383.70;215.35;;;;;;;;;;5002065;28;20734;-67
2022/07/26 00:13:25;;;;;;;322.55;182.35;;;;;;;;;;5006613;28;20235;-67
2022/07/26 00:15:51;;;;;;;318.48;187.45;;;;;;;;;;5011079;28;20851;-67
2022/07/26 00:18:18;;;;;;;326.33;184.93;;;;;;;;;;5006095;28;20209;-67
2022/07/26 00:20:44;;;;;;;289.02;167.52;;;;;;;;;;5012657;28;20582;-67
2022/07/26 00:23:10;;;;;;;311.00;177.38;;;;;;;;;;5011416;28;20867;-67
2022/07/26 00:25:36;;;;;;;424.00;233.65;;;;;;;;;;5009966;28;20185;-67
2022/07/26 00:28:03;;;;;;;332.92;190.40;;;;;;;;;;5006274;28;20248;-67
2022/07/26 00:30:29;;;;;;;314.25;180.10;;;;;;;;;;5003925;28;20213;-67
2022/07/26 00:32:55;;;;;;;363.67;206.07;;;;;;;;;;5002006;28;20224;-68
2022/07/26 00:35:21;;;;;;;364.05;203.18;;;;;;;;;;5003624;28;20270;-67
2022/07/26 00:37:47;;;;;;;325.92;188.23;;;;;;;;;;4998691;28;20181;-68
2022/07/26 00:40:13;;;;;;;345.05;192.98;;;;;;;;;;5002420;28;20221;-67
2022/07/26 00:42:39;;;;;;;297.67;173.07;;;;;;;;;;5003857;28;20216;-67
2022/07/26 00:45:07;;;;;;;327.48;187.43;;;;;;;;;;5003702;28;20217;-67
2022/07/26 00:47:34;;;;;;;307.73;181.25;;;;;;;;;;5004346;28;20228;-67
2022/07/26 00:50:00;;;;;;;355.30;202.50;;;;;;;;;;5002693;28;20228;-67
2022/07/26 00:52:26;;;;;;;347.42;193.50;;;;;;;;;;5003457;28;20781;-67
2022/07/26 00:54:53;;;;;;;363.58;202.15;;;;;;;;;;5004336;28;20245;-67
2022/07/26 00:57:20;;;;;;;341.38;197.65;;;;;;;;;;5003582;28;20212;-67
2022/07/26 00:59:47;;;;;;;317.90;188.13;;;;;;;;;;5004820;28;20279;-69
2022/07/26 01:02:13;;;;;;;330.90;187.75;;;;;;;;;;5002541;28;20221;-70
2022/07/26 01:04:39;;;;;;;307.48;178.38;;;;;;;;;;5002018;28;20177;-69
2022/07/26 01:07:05;;;;;;;302.55;174.02;;;;;;;;;;4998463;28;20283;-70
2022/07/26 01:09:31;;;;;;;351.00;197.20;;;;;;;;;;4994515;28;20240;-71
2022/07/26 01:11:58;;;;;;;308.25;181.35;;;;;;;;;;5004288;28;20694;-71
2022/07/26 01:14:24;;;;;;;324.88;182.57;;;;;;;;;;5006276;28;20213;-71
2022/07/26 01:16:51;;;;;;;320.83;180.15;;;;;;;;;;5010032;28;20177;-70
2022/07/26 01:19:17;;;;;;;326.98;179.88;;;;;;;;;;5008376;28;20649;-70
2022/07/26 01:21:44;;;;;;;313.25;175.73;;;;;;;;;;4999900;28;20271;-70
2022/07/26 01:24:10;;;;;;;322.73;178.45;;;;;;;;;;5006401;28;20785;-69
2022/07/26 01:26:36;;;;;;;295.67;167.45;;;;;;;;;;5000543;28;20279;-69
2022/07/26 01:29:02;;;;;;;313.05;174.38;;;;;;;;;;5002124;28;20181;-69
2022/07/26 01:31:28;;;;;;;390.75;211.05;;;;;;;;;;5003900;28;20797;-69
2022/07/26 01:33:54;;;;;;;381.38;211.55;;;;;;;;;;4999799;28;20220;-69
2022/07/26 01:36:20;;;;;;;358.00;193.40;;;;;;;;;;4995470;28;20217;-69
2022/07/26 01:38:46;;;;;;;331.95;188.98;;;;;;;;;;5000306;28;20204;-69
2022/07/26 01:41:12;;;;;;;314.08;176.25;;;;;;;;;;5000769;28;20852;-69
2022/07/26 01:43:38;;;;;;;327.63;179.77;;;;;;;;;;5002753;28;20200;-69
2022/07/26 01:46:06;;;;;;;325.67;182.43;;;;;;;;;;5001545;28;20532;-69
2022/07/26 01:48:32;;;;;;;339.55;187.73;;;;;;;;;;5001881;28;21966;-69
2022/07/26 01:50:58;;;;;;;351.27;195.10;;;;;;;;;;4999609;28;20247;-69
2022/07/26 01:53:24;;;;;;;360.48;199.00;;;;;;;;;;5000382;28;20533;-69
2022/07/26 01:55:49;;;;;;;322.92;183.23;;;;;;;;;;4996668;28;20197;-68
2022/07/26 01:58:15;;;;;;;309.05;172.02;;;;;;;;;;4997704;28;20243;-69
2022/07/26 02:00:41;;;;;;;274.33;160.57;;;;;;;;;;5001025;28;20221;-69
2022/07/26 02:03:07;;;;;;;317.48;181.13;;;;;;;;;;5003242;28;20328;-68
2022/07/26 02:05:33;;;;;;;362.52;206.15;;;;;;;;;;5003208;28;20217;-68
2022/07/26 02:07:59;;;;;;;355.75;199.70;;;;;;;;;;5000350;28;20177;-69
2022/07/26 02:10:59;;;;;;;364.85;206.93;;;;;;;;;;4998576;28;20623;-69
2022/07/26 02:13:13;;;;;;;335.63;192.45;;;;;;;;;;5002527;28;20216;-69
2022/07/26 02:15:38;;;;;;;334.88;189.35;;;;;;;;;;5000567;28;20213;-68
2022/07/26 02:18:04;;;;;;;286.83;166.98;;;;;;;;;;5007515;28;20216;-68
2022/07/26 02:20:32;;;;;;;308.40;172.27;;;;;;;;;;5001718;28;20235;-68
2022/07/26 02:22:58;;;;;;;337.58;189.43;;;;;;;;;;5004040;28;20254;-68
2022/07/26 02:25:24;;;;;;;392.90;209.32;;;;;;;;;;4998230;28;20201;-68
2022/07/26 02:27:50;;;;;;;327.13;182.32;;;;;;;;;;4998046;28;20244;-68
2022/07/26 02:30:16;;;;;;;377.38;209.55;;;;;;;;;;5004885;28;20220;-68
2022/07/26 02:32:42;;;;;;;315.50;186.70;;;;;;;;;;4999806;28;20251;-68
2022/07/26 02:35:08;;;;;;;302.63;171.73;;;;;;;;;;5000986;28;20351;-69
2022/07/26 02:37:34;;;;;;;309.38;180.63;;;;;;;;;;5000847;28;20185;-68
2022/07/26 02:40:01;;;;;;;295.05;169.82;;;;;;;;;;5007422;28;20217;-68
2022/07/26 02:42:27;;;;;;;471.65;250.93;;;;;;;;;;4991771;28;20239;-68
2022/07/26 02:44:53;;;;;;;351.35;199.25;;;;;;;;;;5000084;28;20753;-68
2022/07/26 02:47:19;;;;;;;345.48;193.45;;;;;;;;;;4997654;28;20217;-68
2022/07/26 02:49:45;;;;;;;382.55;215.65;;;;;;;;;;5001349;28;20173;-68
2022/07/26 02:52:11;;;;;;;336.52;193.43;;;;;;;;;;5002634;28;20566;-68
2022/07/26 02:54:37;;;;;;;314.90;184.77;;;;;;;;;;5005118;28;20213;-68
2022/07/26 02:57:03;;;;;;;317.13;181.32;;;;;;;;;;5008071;28;20212;-68
2022/07/26 02:59:29;;;;;;;354.05;201.05;;;;;;;;;;5006732;28;20675;-68
2022/07/26 03:01:55;;;;;;;348.40;202.10;;;;;;;;;;5007333;28;20236;-68
2022/07/26 03:04:21;;;;;;;369.92;208.57;;;;;;;;;;5005872;28;20207;-68
2022/07/26 03:06:47;;;;;;;332.60;184.95;;;;;;;;;;5001421;28;20220;-68
2022/07/26 03:09:13;;;;;;;326.88;188.73;;;;;;;;;;5006320;28;20221;-68
2022/07/26 03:11:39;;;;;;;375.77;209.00;;;;;;;;;;5001024;28;20220;-68
2022/07/26 03:14:05;;;;;;;317.73;182.52;;;;;;;;;;5006764;28;20168;-68
2022/07/26 03:16:31;;;;;;;389.35;218.10;;;;;;;;;;5001571;28;20650;-68
2022/07/26 03:18:57;;;;;;;358.08;199.77;;;;;;;;;;5007010;28;20231;-69
2022/07/26 03:21:23;;;;;;;346.83;192.57;;;;;;;;;;5005837;28;20221;-68
2022/07/26 03:23:49;;;;;;;346.75;196.93;;;;;;;;;;5003769;28;20220;-68
2022/07/26 03:26:15;;;;;;;308.65;171.25;;;;;;;;;;5006665;28;20225;-68
2022/07/26 03:28:43;;;;;;;322.55;182.80;;;;;;;;;;5001593;28;20181;-69
2022/07/26 03:31:09;;;;;;;316.13;182.25;;;;;;;;;;5006200;28;20217;-68
2022/07/26 03:33:35;;;;;;;343.38;193.35;;;;;;;;;;5002705;28;20260;-68
2022/07/26 03:36:01;;;;;;;355.88;197.38;;;;;;;;;;5003102;28;20217;-68
2022/07/26 03:38:27;;;;;;;323.20;176.75;;;;;;;;;;5003449;28;20222;-68
2022/07/26 03:40:53;;;;;;;380.00;208.27;;;;;;;;;;5007225;28;20177;-68
2022/07/26 03:43:18;;;;;;;332.65;184.70;;;;;;;;;;5004644;28;20173;-68
2022/07/26 03:45:45;;;;;;;355.60;197.05;;;;;;;;;;5004753;28;20221;-68
2022/07/26 03:48:11;;;;;;;320.73;178.25;;;;;;;;;;5007653;28;20658;-68
2022/07/26 03:50:37;;;;;;;335.17;183.13;;;;;;;;;;4997181;28;20228;-68
2022/07/26 03:53:03;;;;;;;323.48;178.10;;;;;;;;;;5003078;28;20208;-69
2022/07/26 03:58:13;;;;;;;346.45;186.85;;;;;;;;;;4994929;28;20240;-68
2022/07/26 04:00:39;;;;;;;298.38;164.38;;;;;;;;;;5002223;28;20762;-68
2022/07/26 04:03:05;;;;;;;288.02;164.38;;;;;;;;;;5008353;28;20221;-68
2022/07/26 04:05:31;;;;;;;381.63;210.38;;;;;;;;;;5008202;28;20581;-68
2022/07/26 04:07:57;;;;;;;343.83;196.77;;;;;;;;;;5003235;28;20196;-68
2022/07/26 04:10:23;;;;;;;321.65;178.80;;;;;;;;;;5002186;28;20173;-68
2022/07/26 04:12:49;;;;;;;360.90;197.63;;;;;;;;;;4995872;28;21901;-68
2022/07/26 04:15:15;;;;;;;359.95;197.40;;;;;;;;;;5002247;28;20271;-68
2022/07/26 04:17:42;;;;;;;301.98;170.52;;;;;;;;;;5009972;28;20230;-68
2022/07/26 04:20:09;;;;;;;306.98;167.35;;;;;;;;;;5003879;28;20224;-68
2022/07/26 04:22:36;;;;;;;355.85;194.57;;;;;;;;;;5000233;28;21834;-68
2022/07/26 04:25:03;;;;;;;396.98;215.52;;;;;;;;;;4999989;28;20267;-69
2022/07/26 04:27:29;;;;;;;319.50;177.45;;;;;;;;;;5005875;28;20232;-68
2022/07/26 04:29:55;;;;;;;393.58;214.55;;;;;;;;;;5002463;28;22782;-68
2022/07/26 04:32:21;;;;;;;329.23;185.55;;;;;;;;;;5002464;28;20237;-68
2022/07/26 04:34:47;;;;;;;338.52;190.57;;;;;;;;;;5007018;28;20182;-68
2022/07/26 04:37:13;;;;;;;359.33;204.25;;;;;;;;;;5004853;28;20666;-68
2022/07/26 04:39:39;;;;;;;348.80;198.50;;;;;;;;;;5001232;28;20777;-68
2022/07/26 04:42:05;;;;;;;369.60;198.90;;;;;;;;;;4993884;28;20228;-68
2022/07/26 04:44:31;;;;;;;337.20;187.63;;;;;;;;;;5002278;28;20229;-68
2022/07/26 04:46:57;;;;;;;360.63;202.10;;;;;;;;;;5004201;28;20204;-67
2022/07/26 04:49:23;;;;;;;334.27;185.98;;;;;;;;;;5010174;28;20528;-68
2022/07/26 04:51:48;;;;;;;377.25;211.18;;;;;;;;;;4998759;28;20224;-68
2022/07/26 04:54:19;;;;;;;335.50;188.35;;;;;;;;;;5002018;28;20300;-69
2022/07/26 04:56:45;;;;;;;345.23;194.57;;;;;;;;;;5000605;28;20216;-68
2022/07/26 04:59:11;;;;;;;349.92;195.25;;;;;;;;;;5003452;28;20275;-69
2022/07/26 05:01:37;;;;;;;419.40;221.98;;;;;;;;;;4997727;28;20212;-68
2022/07/26 05:04:03;;;;;;;374.42;196.77;;;;;;;;;;5004546;28;20553;-68
2022/07/26 05:06:31;;;;;;;325.10;176.70;;;;;;;;;;5004286;28;20216;-68
2022/07/26 05:08:56;;;;;;;336.95;185.55;;;;;;;;;;5009248;28;20221;-68
2022/07/26 05:11:22;;;;;;;313.40;172.80;;;;;;;;;;5004863;28;20247;-68
2022/07/26 05:13:48;;;;;;;323.05;177.05;;;;;;;;;;5008938;28;20181;-68
2022/07/26 05:16:14;;;;;;;354.27;193.70;;;;;;;;;;5007232;28;20215;-68
2022/07/26 05:18:40;;;;;;;311.25;175.95;;;;;;;;;;5005393;28;20710;-68
2022/07/26 05:21:06;;;;;;;319.00;178.63;;;;;;;;;;5010243;28;20236;-66
2022/07/26 05:23:32;;;;;;;312.42;174.45;;;;;;;;;;5005331;28;20266;-68
2022/07/26 05:25:58;;;;;;;445.20;241.57;;;;;;;;;;5004605;28;20239;-68
2022/07/26 05:28:24;;;;;;;339.55;185.32;;;;;;;;;;5006534;28;20169;-67
2022/07/26 05:30:50;;;;;;;405.98;213.55;;;;;;;;;;4984016;28;20658;-67
2022/07/26 05:33:16;;;;;;;374.80;199.85;;;;;;;;;;5000029;28;20217;-67
2022/07/26 05:35:42;;;;;;;444.10;246.00;;;;;;;;;;5003173;28;23630;-67
2022/07/26 05:38:08;;;;;;;339.75;195.20;;;;;;;;;;5000923;28;20232;-67
2022/07/26 05:40:34;;;;;;;309.45;180.13;;;;;;;;;;4999258;28;20564;-67
2022/07/26 05:43:00;;;;;;;362.40;205.38;;;;;;;;;;4998966;28;20249;-67
2022/07/26 05:45:26;;;;;;;384.38;219.45;;;;;;;;;;4994120;28;20221;-67
2022/07/26 05:47:52;;;;;;;363.45;206.52;;;;;;;;;;5000364;28;20217;-67
2022/07/26 05:50:18;;;;;;;398.58;217.63;;;;;;;;;;5000672;28;20701;-67
2022/07/26 05:52:45;;;;;;;368.58;210.50;;;;;;;;;;4998424;28;20204;-66
2022/07/26 05:55:11;;;;;;;380.92;212.77;;;;;;;;;;4998386;28;20745;-66
2022/07/26 05:57:40;;;;;;;371.95;210.27;;;;;;;;;;4997354;28;20224;-67
2022/07/26 06:00:06;;;;;;;564.35;303.67;;;;;;;;;;4993862;28;20216;-66
2022/07/26 06:02:32;;;;;;;425.83;234.57;;;;;;;;;;4994635;28;20220;-67
2022/07/26 06:04:58;;;;;;;378.42;213.70;;;;;;;;;;5000802;28;21216;-66
2022/07/26 06:07:24;;;;;;;373.85;210.63;;;;;;;;;;5000227;28;20212;-71
2022/07/26 06:09:50;;;;;;;420.90;236.63;;;;;;;;;;4994884;28;20217;-68
2022/07/26 06:12:16;;;;;;;381.88;209.63;;;;;;;;;;4998223;28;20220;-67
2022/07/26 06:14:42;;;;;;;354.83;207.82;;;;;;;;;;4997495;28;20784;-66
2022/07/26 06:17:08;;;;;;;328.15;179.40;;;;;;;;;;5001275;28;20282;-67
2022/07/26 06:19:34;;;;;;;364.55;196.85;;;;;;;;;;5000479;28;20216;-72
2022/07/26 06:22:00;;;;;;;416.20;224.23;;;;;;;;;;4980273;28;20220;-75
2022/07/26 06:24:26;;;;;;;400.80;212.48;;;;;;;;;;4994868;28;20282;-72
2022/07/26 06:26:54;;;;;;;365.45;203.55;;;;;;;;;;4996504;28;20221;-75
2022/07/26 06:29:20;;;;;;;338.85;183.45;;;;;;;;;;4999981;28;20213;-77
2022/07/26 06:31:46;;;;;;;363.40;193.88;;;;;;;;;;5003392;28;20808;-78
2022/07/26 06:34:12;;;;;;;341.13;186.10;;;;;;;;;;5003973;28;20666;-76
2022/07/26 06:36:38;;;;;;;377.42;204.57;;;;;;;;;;5001184;28;20223;-72
2022/07/26 06:39:04;;;;;;;315.10;177.25;;;;;;;;;;5000484;28;20594;-67
2022/07/26 06:41:30;;;;;;;313.98;174.77;;;;;;;;;;5001495;28;20229;-64
2022/07/26 06:43:56;;;;;;;363.17;205.75;;;;;;;;;;5004644;28;20224;-66
2022/07/26 06:46:22;;;;;;;333.33;193.20;;;;;;;;;;5008499;28;20280;-66
2022/07/26 06:48:48;;;;;;;322.08;183.02;;;;;;;;;;5022737;28;20216;-62
2022/07/26 06:51:14;;;;;;;398.70;221.07;;;;;;;;;;5005761;28;20232;-61
2022/07/26 06:53:40;;;;;;;310.45;179.55;;;;;;;;;;4997409;28;20224;-62
2022/07/26 06:56:06;;;;;;;311.70;180.20;;;;;;;;;;4998079;28;20182;-60
2022/07/26 06:58:32;;;;;;;338.25;190.13;;;;;;;;;;5000381;28;20185;-62
2022/07/26 07:00:57;;;;;;;362.17;209.27;;;;;;;;;;5002040;28;20228;-63
2022/07/26 07:03:23;;;;;;;337.33;194.90;;;;;;;;;;5000954;28;20376;-64
2022/07/26 07:05:49;;;;;;;378.08;209.30;;;;;;;;;;4997949;28;20228;-62
2022/07/26 07:08:15;;;;;;;319.27;182.90;;;;;;;;;;5008050;28;20538;-62
2022/07/26 07:10:41;;;;;;;343.38;196.93;;;;;;;;;;4999807;28;20181;-62
2022/07/26 07:13:07;;;;;;;322.00;183.55;;;;;;;;;;5011100;28;20227;-62
2022/07/26 07:15:33;;;;;;;402.98;224.52;;;;;;;;;;5002836;28;20228;-63
2022/07/26 07:17:59;;;;;;;396.15;222.73;;;;;;;;;;4991680;28;20216;-61
2022/07/26 07:20:27;;;;;;;386.55;215.75;;;;;;;;;;4997505;28;20239;-61
2022/07/26 07:22:53;;;;;;;374.02;210.50;;;;;;;;;;4997011;28;20219;-62
2022/07/26 07:25:19;;;;;;;396.50;215.32;;;;;;;;;;4997128;28;22135;-63
2022/07/26 07:27:44;;;;;;;366.73;206.10;;;;;;;;;;4994458;28;20283;-61
2022/07/26 07:30:11;;;;;;;400.13;225.48;;;;;;;;;;4992523;28;20229;-61
2022/07/26 07:32:37;;;;;;;346.30;199.02;;;;;;;;;;4995258;28;20915;-61
2022/07/26 07:35:03;;;;;;;379.00;213.15;;;;;;;;;;4997398;28;20547;-62
2022/07/26 07:37:29;;;;;;;412.52;230.35;;;;;;;;;;4999385;28;20189;-61
2022/07/26 07:39:55;;;;;;;482.10;271.10;;;;;;;;;;4994047;28;20259;-61
2022/07/26 07:42:21;;;;;;;400.17;229.13;;;;;;;;;;5000356;28;20237;-61
2022/07/26 07:44:48;;;;;;;375.80;222.15;;;;;;;;;;5002100;28;20225;-61
2022/07/26 07:47:14;;;;;;;391.98;232.68;;;;;;;;;;4990301;28;20221;-62
2022/07/26 07:49:40;;;;;;;389.50;221.75;;;;;;;;;;4999120;28;20426;-62
2022/07/26 07:52:06;;;;;;;337.35;196.13;;;;;;;;;;5002549;28;20224;-61
2022/07/26 07:54:32;;;;;;;465.52;260.20;;;;;;;;;;4995703;28;20225;-60
2022/07/26 07:56:58;;;;;;;371.33;213.07;;;;;;;;;;5003873;28;20236;-61
2022/07/26 07:59:24;;;;;;;366.15;210.25;;;;;;;;;;5000123;28;20221;-62
2022/07/26 08:01:50;;;;;;;349.45;202.50;;;;;;;;;;4991619;28;20713;-62
2022/07/26 08:04:16;;;;;;;361.33;207.05;;;;;;;;;;4998262;28;20798;-63
2022/07/26 08:06:42;;;;;;;355.70;202.88;;;;;;;;;;4992230;28;20224;-61
2022/07/26 08:09:08;;;;;;;349.95;199.77;;;;;;;;;;5001722;28;20225;-61
2022/07/26 08:11:34;;;;;;;361.88;205.82;;;;;;;;;;5004210;28;20228;-61
2022/07/26 08:14:00;;;;;;;425.48;244.52;;;;;;;;;;4996260;28;20220;-63
2022/07/26 08:16:26;;;;;;;398.70;224.10;;;;;;;;;;4992382;28;20243;-60
2022/07/26 08:18:52;;;;;;;377.33;215.30;;;;;;;;;;4999776;28;20316;-62
2022/07/26 08:21:18;;;;;;;373.58;208.45;;;;;;;;;;4997677;28;20547;-61
2022/07/26 08:23:44;;;;;;;368.75;209.25;;;;;;;;;;4999724;28;20225;-60
2022/07/26 08:26:10;;;;;;;326.08;197.63;;;;;;;;;;5004302;28;20236;-62
2022/07/26 08:28:36;;;;;;;357.40;213.23;;;;;;;;;;5006042;28;20657;-62
2022/07/26 08:31:02;;;;;;;398.33;233.48;;;;;;;;;;5005272;28;20217;-61
2022/07/26 08:33:28;;;;;;;328.80;199.52;;;;;;;;;;5007265;28;20220;-61
2022/07/26 08:35:54;;;;;;;358.85;205.25;;;;;;;;;;5005042;28;20225;-62
2022/07/26 08:38:19;;;;;;;343.63;194.00;;;;;;;;;;5010341;28;20213;-62
2022/07/26 08:40:45;;;;;;;356.85;206.80;;;;;;;;;;5005632;28;20181;-61
2022/07/26 08:43:12;;;;;;;325.98;184.98;;;;;;;;;;5006201;28;20283;-61
2022/07/26 08:45:38;;;;;;;447.85;251.65;;;;;;;;;;5006149;28;20229;-62
2022/07/26 08:48:04;;;;;;;322.42;186.43;;;;;;;;;;5005094;28;20713;-61
2022/07/26 08:50:32;;;;;;;378.98;210.57;;;;;;;;;;5002480;28;20217;-62
2022/07/26 08:53:02;;;;;;;393.52;220.45;;;;;;;;;;4996021;28;20228;-70
2022/07/26 08:55:29;;;;;;;428.67;240.93;;;;;;;;;;5001787;28;20551;-70
2022/07/26 08:57:55;;;;;;;357.63;205.23;;;;;;;;;;5002701;28;20213;-69
2022/07/26 09:00:28;;;;;;;410.85;224.57;;;;;;;;;;4990987;28;20217;-70
2022/07/26 09:02:54;;;;;;;401.42;226.68;;;;;;;;;;4996997;28;20223;-69
2022/07/26 09:05:26;;;;;;;347.75;198.35;;;;;;;;;;5004452;28;20209;-69
2022/07/26 09:07:52;;;;;;;360.85;204.52;;;;;;;;;;5006744;28;20173;-70
2022/07/26 09:10:18;;;;;;;358.88;200.75;;;;;;;;;;5008367;28;20583;-70
2022/07/26 09:12:44;;;;;;;344.98;196.27;;;;;;;;;;5002749;28;20229;-70
2022/07/26 09:15:18;;;;;;;328.48;195.45;;;;;;;;;;5011268;28;20267;-70
2022/07/26 09:17:45;;;;;;;331.88;196.52;;;;;;;;;;5013753;28;20213;-70
2022/07/26 09:20:13;;;;;;;394.10;217.63;;;;;;;;;;5007437;28;20217;-69
2022/07/26 09:22:55;;;;;;;358.02;200.40;;;;;;;;;;5003803;28;20220;-70
2022/07/26 09:25:23;;;;;;;335.45;187.82;;;;;;;;;;5005725;28;20573;-70
2022/07/26 09:27:49;;;;;;;359.50;203.27;;;;;;;;;;5019984;28;20260;-70
2022/07/26 09:30:15;;;;;;;380.48;213.13;;;;;;;;;;5020579;28;20224;-69
2022/07/26 09:32:54;;;;;;;340.38;193.13;;;;;;;;;;5008010;28;20580;-70
2022/07/26 09:35:20;;;;;;;418.27;227.55;;;;;;;;;;5008577;28;20224;-69
2022/07/26 09:37:47;;;;;;;366.80;207.40;;;;;;;;;;5008533;28;20527;-70
2022/07/26 09:40:14;;;;;;;348.67;196.30;;;;;;;;;;5011295;28;20216;-70
2022/07/26 09:42:56;;;;;;;339.63;195.65;;;;;;;;;;5009395;28;20298;-70
2022/07/26 09:45:23;;;;;;;414.83;232.80;;;;;;;;;;5004672;28;20216;-70
2022/07/26 09:47:49;;;;;;;344.02;199.10;;;;;;;;;;5005106;28;20217;-70
2022/07/26 09:50:16;;;;;;;360.40;206.13;;;;;;;;;;5008918;28;20225;-70
2022/07/26 09:52:58;;;;;;;345.88;201.48;;;;;;;;;;5009641;28;20554;-70
2022/07/26 09:55:24;;;;;;;375.95;214.05;;;;;;;;;;5005755;28;20259;-70
2022/07/26 09:57:51;;;;;;;355.00;205.13;;;;;;;;;;5010769;28;20224;-70
2022/07/26 10:00:17;;;;;;;355.80;203.43;;;;;;;;;;5012286;28;20228;-70
2022/07/26 10:02:43;;;;;;;348.15;201.55;;;;;;;;;;5010742;28;20235;-70
2022/07/26 10:05:09;;;;;;;378.65;219.00;;;;;;;;;;5005724;28;20225;-69
2022/07/26 10:07:36;;;;;;;360.27;211.30;;;;;;;;;;5010404;28;20195;-70
2022/07/26 10:10:10;;;;;;;356.42;209.63;;;;;;;;;;5008258;28;20225;-69
2022/07/26 10:12:36;;;;;;;354.83;204.40;;;;;;;;;;5006287;28;20224;-70
2022/07/26 10:15:02;;;;;;;442.88;249.45;;;;;;;;;;4994786;28;20221;-70
2022/07/26 10:17:28;;;;;;;347.08;202.85;;;;;;;;;;5006947;28;20217;-63
2022/07/26 10:20:01;;;;;;;404.75;233.48;;;;;;;;;;4995709;28;20608;-63
2022/07/26 10:22:32;;;;;;;383.00;228.32;;;;;;;;;;5003570;28;20205;-63
2022/07/26 10:25:18;;;;;;;397.77;229.20;;;;;;;;;;5000744;28;20233;-63
2022/07/26 10:27:45;;;;;;;395.35;236.98;;;;;;;;;;4992803;28;20217;-61
2022/07/26 10:30:23;;;;;;;381.85;226.13;;;;;;;;;;5000264;28;20686;-62
2022/07/26 10:32:59;;;;;;;396.02;233.18;;;;;;;;;;4995019;28;20220;-60
2022/07/26 10:35:28;;;;;;;436.70;247.73;;;;;;;;;;5004495;28;20220;-61
2022/07/26 10:37:58;;;;;;;443.30;256.90;;;;;;;;;;4995923;28;20189;-62
2022/07/26 10:40:28;;;;;;;372.42;216.27;;;;;;;;;;4997979;28;20169;-61
2022/07/26 10:43:06;;;;;;;385.08;237.23;;;;;;;;;;4996772;28;20220;-61
2022/07/26 10:45:32;;;;;;;455.45;264.83;;;;;;;;;;4998867;28;20224;-61
2022/07/26 10:48:17;;;;;;;409.50;244.95;;;;;;;;;;5002523;28;20221;-62
2022/07/26 10:50:44;;;;;;;404.90;239.43;;;;;;;;;;5001467;28;20634;-62
2022/07/26 10:53:16;;;;;;;387.30;225.90;;;;;;;;;;5000512;28;20219;-61
2022/07/26 10:55:52;;;;;;;447.30;258.63;;;;;;;;;;5004174;28;20181;-62
2022/07/26 10:58:19;;;;;;;356.48;217.35;;;;;;;;;;5000079;28;20219;-62
2022/07/26 11:00:55;;;;;;;386.77;239.32;;;;;;;;;;5000856;28;20809;-62
2022/07/26 11:03:21;;;;;;;383.63;235.10;;;;;;;;;;5000423;28;20255;-62
2022/07/26 11:05:47;;;;;;;447.73;272.17;;;;;;;;;;4992166;28;20221;-61
2022/07/26 11:08:13;;;;;;;369.02;228.45;;;;;;;;;;4998531;28;20664;-62
2022/07/26 11:10:40;;;;;;;386.73;245.77;;;;;;;;;;5006752;28;20189;-62
2022/07/26 11:13:11;;;;;;;358.45;230.30;;;;;;;;;;5008851;28;20221;-62
2022/07/26 11:15:38;;;;;;;410.67;257.55;;;;;;;;;;5007256;28;20221;-62
2022/07/26 11:18:08;;;;;;;406.65;250.80;;;;;;;;;;4997866;28;20228;-62
2022/07/26 11:20:34;;;;;;;357.88;228.25;;;;;;;;;;5005174;28;20224;-61
2022/07/26 11:23:00;;;;;;;413.55;261.55;;;;;;;;;;5002160;28;20204;-62
2022/07/26 11:25:27;;;;;;;394.98;249.48;;;;;;;;;;5011086;28;20207;-61
2022/07/26 11:28:00;;;;;;;427.52;277.38;;;;;;;;;;5000402;28;20224;-61
2022/07/26 11:30:26;;;;;;;400.73;247.68;;;;;;;;;;5003134;28;20216;-61
2022/07/26 11:32:53;;;;;;;413.90;257.92;;;;;;;;;;5002759;28;20283;-61
2022/07/26 11:35:19;;;;;;;404.08;250.10;;;;;;;;;;5008955;28;20229;-63
2022/07/26 11:38:00;;;;;;;391.30;253.80;;;;;;;;;;5002282;28;21798;-68
2022/07/26 11:40:42;;;;;;;381.13;251.50;;;;;;;;;;5003866;28;20285;-69
2022/07/26 11:43:08;;;;;;;403.67;262.60;;;;;;;;;;5004182;28;20240;-69
2022/07/26 11:45:34;;;;;;;418.63;273.67;;;;;;;;;;5015823;28;20217;-70
2022/07/26 11:48:00;;;;;;;428.92;276.33;;;;;;;;;;5008230;28;20208;-69
2022/07/26 11:50:26;;;;;;;397.13;246.10;;;;;;;;;;5009956;28;20227;-69
2022/07/26 11:52:52;;;;;;;391.23;249.30;;;;;;;;;;5012940;28;20212;-69
2022/07/26 11:55:28;;;;;;;407.50;251.73;;;;;;;;;;5009931;28;20181;-69
2022/07/26 11:57:54;;;;;;;378.30;249.35;;;;;;;;;;5008186;28;20227;-69
2022/07/26 12:00:21;;;;;;;456.42;286.13;;;;;;;;;;5007859;28;20213;-69
2022/07/26 12:02:47;;;;;;;366.33;232.95;;;;;;;;;;5009726;28;20228;-69
2022/07/26 12:05:20;;;;;;;344.92;230.50;;;;;;;;;;5011740;28;20240;-69
2022/07/26 12:07:53;;;;;;;334.88;226.25;;;;;;;;;;5009978;28;20305;-69
2022/07/26 12:10:19;;;;;;;361.95;234.50;;;;;;;;;;5009987;28;20232;-69
2022/07/26 12:12:45;;;;;;;375.25;240.02;;;;;;;;;;5003040;28;20642;-68
2022/07/26 12:15:12;;;;;;;358.75;228.95;;;;;;;;;;5011532;28;20251;-69
2022/07/26 12:17:38;;;;;;;368.90;230.93;;;;;;;;;;5007609;28;20837;-69
2022/07/26 12:20:15;;;;;;;342.92;218.00;;;;;;;;;;5012444;28;20181;-69
2022/07/26 12:22:41;;;;;;;344.35;216.68;;;;;;;;;;5009999;28;20251;-69
2022/07/26 12:25:07;;;;;;;391.63;240.88;;;;;;;;;;5011019;28;20228;-69
2022/07/26 12:27:33;;;;;;;492.00;299.55;;;;;;;;;;5010742;28;20228;-69
2022/07/26 12:30:02;;;;;;;386.90;240.00;;;;;;;;;;5009168;28;20283;-69
2022/07/26 12:32:32;;;;;;;362.45;223.65;;;;;;;;;;5011369;28;20225;-69
2022/07/26 12:35:14;;;;;;;395.52;246.63;;;;;;;;;;5007882;28;20185;-69
2022/07/26 12:37:46;;;;;;;350.90;224.48;;;;;;;;;;5011572;28;20188;-69
2022/07/26 12:40:16;;;;;;;383.17;237.00;;;;;;;;;;4998209;28;20217;-68
2022/07/26 12:42:49;;;;;;;411.83;253.82;;;;;;;;;;5003020;28;20610;-68
2022/07/26 12:45:15;;;;;;;438.38;272.80;;;;;;;;;;4993643;28;20223;-67
2022/07/26 12:47:42;;;;;;;426.08;263.20;;;;;;;;;;4997238;28;20232;-68
2022/07/26 12:50:09;;;;;;;344.73;227.70;;;;;;;;;;5015792;28;20226;-67
2022/07/26 12:52:35;;;;;;;392.63;260.13;;;;;;;;;;5000611;28;20192;-67
2022/07/26 12:55:02;;;;;;;385.75;261.23;;;;;;;;;;5007938;28;20683;-69
2022/07/26 12:57:28;;;;;;;384.25;257.33;;;;;;;;;;5004731;28;20217;-68
2022/07/26 12:59:54;;;;;;;396.17;272.20;;;;;;;;;;5009197;28;20217;-68
2022/07/26 13:02:21;;;;;;;375.73;257.13;;;;;;;;;;5003051;28;20248;-68
2022/07/26 13:04:47;;;;;;;372.60;253.95;;;;;;;;;;5008026;28;20177;-67
2022/07/26 13:07:14;;;;;;;409.42;271.02;;;;;;;;;;5004767;28;20672;-67
2022/07/26 13:09:40;;;;;;;430.35;280.98;;;;;;;;;;5004849;28;20678;-68
2022/07/26 13:12:07;;;;;;;374.23;250.32;;;;;;;;;;5006044;28;20263;-67
2022/07/26 13:14:33;;;;;;;408.95;274.42;;;;;;;;;;5008082;28;20247;-67
2022/07/26 13:17:00;;;;;;;405.67;281.52;;;;;;;;;;4998878;28;20805;-67
2022/07/26 13:19:26;;;;;;;390.60;268.77;;;;;;;;;;4999535;28;20173;-67
2022/07/26 13:21:52;;;;;;;462.27;309.20;;;;;;;;;;5003801;28;20741;-67
2022/07/26 13:24:17;;;;;;;424.52;295.80;;;;;;;;;;5002442;28;20220;-67
2022/07/26 13:26:43;;;;;;;412.63;273.25;;;;;;;;;;4991041;28;20224;-67
2022/07/26 13:29:09;;;;;;;412.73;271.75;;;;;;;;;;4995266;28;20750;-68
2022/07/26 13:31:36;;;;;;;466.60;306.17;;;;;;;;;;5003923;28;20215;-68
2022/07/26 13:34:02;;;;;;;410.35;272.10;;;;;;;;;;4996112;28;20226;-68
2022/07/26 13:36:28;;;;;;;398.05;257.83;;;;;;;;;;5000471;28;20216;-68
2022/07/26 13:38:54;;;;;;;444.48;289.92;;;;;;;;;;4990191;28;20223;-68
2022/07/26 13:41:20;;;;;;;415.55;274.33;;;;;;;;;;4999715;28;20322;-68
2022/07/26 13:43:46;;;;;;;399.02;261.05;;;;;;;;;;5009258;28;20769;-68
2022/07/26 13:46:12;;;;;;;458.20;285.55;;;;;;;;;;5003072;28;20244;-67
2022/07/26 13:48:38;;;;;;;480.75;291.25;;;;;;;;;;5000408;28;21098;-69
2022/07/26 13:51:04;;;;;;;484.50;290.55;;;;;;;;;;4988909;28;20232;-66
2022/07/26 13:53:30;;;;;;;404.65;250.23;;;;;;;;;;5000254;28;20221;-67